sensor_id;sensor_type;location;lat;lon;timestamp;pressure;altitude;pressure_sealevel;temperature;humidity
75699;BME280;64313;51.018;13.742;2023-04-07T00:01:35;99959.91;;;4.28;57.21
75699;BME280;64313;51.018;13.742;2023-04-07T00:04:01;99962.06;;;4.24;57.07
75699;BME280;64313;51.018;13.742;2023-04-07T00:06:26;99964.00;;;4.22;56.96
75699;BME280;64313;51.018;13.742;2023-04-07T00:08:51;99957.91;;;4.22;57.07
75699;BME280;64313;51.018;13.742;2023-04-07T00:11:17;99961.69;;;4.19;56.38
75699;BME280;64313;51.018;13.742;2023-04-07T00:13:42;99954.88;;;4.17;56.61
75699;BME280;64313;51.018;13.742;2023-04-07T00:16:07;99955.19;;;4.14;56.15
75699;BME280;64313;51.018;13.742;2023-04-07T00:18:33;99965.78;;;4.14;56.84
75699;BME280;64313;51.018;13.742;2023-04-07T00:20:58;99962.06;;;4.06;56.84
75699;BME280;64313;51.018;13.742;2023-04-07T00:23:23;99952.63;;;4.04;56.90
75699;BME280;64313;51.018;13.742;2023-04-07T00:25:49;99959.72;;;4.03;57.24
75699;BME280;64313;51.018;13.742;2023-04-07T00:28:14;99954.72;;;4.00;57.29
75699;BME280;64313;51.018;13.742;2023-04-07T00:30:40;99953.38;;;3.96;57.89
75699;BME280;64313;51.018;13.742;2023-04-07T00:33:05;99955.78;;;3.89;57.56
75699;BME280;64313;51.018;13.742;2023-04-07T00:35:30;99957.91;;;3.86;58.02
75699;BME280;64313;51.018;13.742;2023-04-07T00:37:56;99958.34;;;3.81;58.00
75699;BME280;64313;51.018;13.742;2023-04-07T00:40:21;99955.00;;;3.79;57.43
75699;BME280;64313;51.018;13.742;2023-04-07T00:42:46;99947.22;;;3.78;57.76
75699;BME280;64313;51.018;13.742;2023-04-07T00:45:12;99937.13;;;3.73;57.44
75699;BME280;64313;51.018;13.742;2023-04-07T00:47:37;99937.25;;;3.72;57.66
75699;BME280;64313;51.018;13.742;2023-04-07T00:50:03;99935.75;;;3.69;58.05
75699;BME280;64313;51.018;13.742;2023-04-07T00:52:31;99938.81;;;3.64;58.25
75699;BME280;64313;51.018;13.742;2023-04-07T00:54:59;99947.88;;;3.62;58.54
75699;BME280;64313;51.018;13.742;2023-04-07T00:57:24;99930.38;;;3.61;58.13
75699;BME280;64313;51.018;13.742;2023-04-07T00:59:53;99932.19;;;3.60;58.43
75699;BME280;64313;51.018;13.742;2023-04-07T01:02:23;99928.19;;;3.56;58.11
75699;BME280;64313;51.018;13.742;2023-04-07T01:10:52;99921.50;;;3.52;58.31
75699;BME280;64313;51.018;13.742;2023-04-07T01:13:33;99917.22;;;3.51;58.74
75699;BME280;64313;51.018;13.742;2023-04-07T01:16:30;99911.38;;;3.47;59.18
75699;BME280;64313;51.018;13.742;2023-04-07T01:19:00;99912.50;;;3.45;58.45
75699;BME280;64313;51.018;13.742;2023-04-07T01:21:32;99911.16;;;3.41;58.18
75699;BME280;64313;51.018;13.742;2023-04-07T01:24:04;99924.56;;;3.30;59.05
75699;BME280;64313;51.018;13.742;2023-04-07T01:26:36;99907.94;;;3.19;59.70
75699;BME280;64313;51.018;13.742;2023-04-07T01:31:47;99908.91;;;3.18;59.53
75699;BME280;64313;51.018;13.742;2023-04-07T01:34:15;99908.22;;;3.16;59.58
75699;BME280;64313;51.018;13.742;2023-04-07T01:36:42;99910.34;;;3.13;59.28
75699;BME280;64313;51.018;13.742;2023-04-07T01:39:08;99909.34;;;3.14;58.93
75699;BME280;64313;51.018;13.742;2023-04-07T01:41:34;99905.19;;;3.11;59.29
75699;BME280;64313;51.018;13.742;2023-04-07T01:44:09;99905.50;;;3.08;59.33
75699;BME280;64313;51.018;13.742;2023-04-07T01:46:35;99903.53;;;3.10;59.55
75699;BME280;64313;51.018;13.742;2023-04-07T01:49:01;99898.41;;;3.09;60.09
75699;BME280;64313;51.018;13.742;2023-04-07T01:51:29;99898.53;;;3.07;59.26
75699;BME280;64313;51.018;13.742;2023-04-07T01:53:55;99895.22;;;3.05;59.33
75699;BME280;64313;51.018;13.742;2023-04-07T01:56:21;99899.81;;;3.03;59.73
75699;BME280;64313;51.018;13.742;2023-04-07T01:58:50;99902.75;;;3.00;60.25
75699;BME280;64313;51.018;13.742;2023-04-07T02:01:18;99903.88;;;2.97;60.05
75699;BME280;64313;51.018;13.742;2023-04-07T02:04:10;99899.44;;;2.98;59.16
75699;BME280;64313;51.018;13.742;2023-04-07T02:06:50;99893.31;;;2.97;59.45
75699;BME280;64313;51.018;13.742;2023-04-07T02:09:22;99897.34;;;2.92;60.22
75699;BME280;64313;51.018;13.742;2023-04-07T02:11:52;99894.47;;;2.85;60.44
75699;BME280;64313;51.018;13.742;2023-04-07T02:14:22;99890.31;;;2.83;60.23
75699;BME280;64313;51.018;13.742;2023-04-07T02:17:09;99891.28;;;2.81;59.59
75699;BME280;64313;51.018;13.742;2023-04-07T02:19:34;99887.69;;;2.83;60.21
75699;BME280;64313;51.018;13.742;2023-04-07T02:22:02;99891.44;;;2.80;59.46
75699;BME280;64313;51.018;13.742;2023-04-07T02:24:29;99893.00;;;2.73;59.51
75699;BME280;64313;51.018;13.742;2023-04-07T02:26:54;99894.13;;;2.70;59.53
75699;BME280;64313;51.018;13.742;2023-04-07T02:29:20;99889.41;;;2.64;59.55
75699;BME280;64313;51.018;13.742;2023-04-07T02:31:45;99889.28;;;2.66;59.94
75699;BME280;64313;51.018;13.742;2023-04-07T02:34:11;99879.84;;;2.63;60.32
75699;BME280;64313;51.018;13.742;2023-04-07T02:36:37;99879.13;;;2.61;59.83
75699;BME280;64313;51.018;13.742;2023-04-07T02:39:06;99887.34;;;2.58;60.43
75699;BME280;64313;51.018;13.742;2023-04-07T02:41:31;99879.84;;;2.53;60.72
75699;BME280;64313;51.018;13.742;2023-04-07T02:43:58;99874.72;;;2.52;60.42
75699;BME280;64313;51.018;13.742;2023-04-07T02:46:23;99874.06;;;2.50;61.09
75699;BME280;64313;51.018;13.742;2023-04-07T02:48:49;99871.53;;;2.48;60.20
75699;BME280;64313;51.018;13.742;2023-04-07T02:51:15;99873.19;;;2.49;60.39
75699;BME280;64313;51.018;13.742;2023-04-07T02:53:41;99876.00;;;2.48;61.08
75699;BME280;64313;51.018;13.742;2023-04-07T02:56:06;99867.09;;;2.49;60.64
75699;BME280;64313;51.018;13.742;2023-04-07T02:58:31;99875.31;;;2.46;60.94
75699;BME280;64313;51.018;13.742;2023-04-07T03:00:57;99866.69;;;2.44;60.52
75699;BME280;64313;51.018;13.742;2023-04-07T03:03:26;99870.75;;;2.38;61.01
75699;BME280;64313;51.018;13.742;2023-04-07T03:06:05;99871.56;;;2.38;60.60
75699;BME280;64313;51.018;13.742;2023-04-07T03:08:32;99873.66;;;2.35;60.45
75699;BME280;64313;51.018;13.742;2023-04-07T03:10:57;99870.88;;;2.36;60.34
75699;BME280;64313;51.018;13.742;2023-04-07T03:13:27;99866.88;;;2.32;61.31
75699;BME280;64313;51.018;13.742;2023-04-07T03:15:54;99861.03;;;2.29;61.31
75699;BME280;64313;51.018;13.742;2023-04-07T03:18:19;99869.38;;;2.24;61.15
75699;BME280;64313;51.018;13.742;2023-04-07T03:20:47;99868.41;;;2.25;61.28
75699;BME280;64313;51.018;13.742;2023-04-07T03:23:12;99854.66;;;2.22;61.25
75699;BME280;64313;51.018;13.742;2023-04-07T03:25:38;99859.41;;;2.18;61.62
75699;BME280;64313;51.018;13.742;2023-04-07T03:28:04;99850.09;;;2.14;62.13
75699;BME280;64313;51.018;13.742;2023-04-07T03:30:33;99855.66;;;2.11;61.89
75699;BME280;64313;51.018;13.742;2023-04-07T03:32:58;99851.38;;;2.10;61.99
75699;BME280;64313;51.018;13.742;2023-04-07T03:35:23;99847.91;;;2.09;61.74
75699;BME280;64313;51.018;13.742;2023-04-07T03:37:49;99851.66;;;2.07;62.39
75699;BME280;64313;51.018;13.742;2023-04-07T03:40:16;99846.66;;;2.04;61.69
75699;BME280;64313;51.018;13.742;2023-04-07T03:42:44;99845.00;;;2.03;62.40
75699;BME280;64313;51.018;13.742;2023-04-07T03:45:11;99845.13;;;2.01;62.07
75699;BME280;64313;51.018;13.742;2023-04-07T03:47:41;99847.22;;;1.98;62.50
75699;BME280;64313;51.018;13.742;2023-04-07T03:50:07;99837.38;;;2.00;62.29
75699;BME280;64313;51.018;13.742;2023-04-07T03:52:39;99844.16;;;2.02;62.39
75699;BME280;64313;51.018;13.742;2023-04-07T03:55:15;99846.94;;;2.01;62.72
75699;BME280;64313;51.018;13.742;2023-04-07T03:57:40;99848.88;;;1.99;62.35
75699;BME280;64313;51.018;13.742;2023-04-07T04:00:07;99846.22;;;1.99;62.61
75699;BME280;64313;51.018;13.742;2023-04-07T04:02:41;99850.97;;;1.95;62.95
75699;BME280;64313;51.018;13.742;2023-04-07T04:05:08;99850.69;;;1.88;63.14
75699;BME280;64313;51.018;13.742;2023-04-07T04:07:34;99851.97;;;1.84;63.00
75699;BME280;64313;51.018;13.742;2023-04-07T04:10:03;99853.59;;;1.85;62.83
75699;BME280;64313;51.018;13.742;2023-04-07T04:12:33;99858.34;;;1.82;63.14
75699;BME280;64313;51.018;13.742;2023-04-07T04:15:04;99857.78;;;1.78;63.35
75699;BME280;64313;51.018;13.742;2023-04-07T04:17:30;99856.94;;;1.78;63.46
75699;BME280;64313;51.018;13.742;2023-04-07T04:19:56;99855.28;;;1.77;63.60
75699;BME280;64313;51.018;13.742;2023-04-07T04:22:35;99858.06;;;1.75;63.31
75699;BME280;64313;51.018;13.742;2023-04-07T04:25:01;99852.66;;;1.77;62.90
75699;BME280;64313;51.018;13.742;2023-04-07T04:27:27;99853.59;;;1.76;62.74
75699;BME280;64313;51.018;13.742;2023-04-07T04:30:00;99861.50;;;1.76;62.92
75699;BME280;64313;51.018;13.742;2023-04-07T04:32:34;99866.66;;;1.77;62.49
75699;BME280;64313;51.018;13.742;2023-04-07T04:35:00;99859.72;;;1.76;62.38
75699;BME280;64313;51.018;13.742;2023-04-07T04:37:27;99863.03;;;1.78;62.68
75699;BME280;64313;51.018;13.742;2023-04-07T04:39:53;99865.69;;;1.78;62.82
75699;BME280;64313;51.018;13.742;2023-04-07T04:42:20;99861.50;;;1.76;62.68
75699;BME280;64313;51.018;13.742;2023-04-07T04:44:46;99863.31;;;1.75;62.67
75699;BME280;64313;51.018;13.742;2023-04-07T04:47:13;99852.78;;;1.75;62.95
75699;BME280;64313;51.018;13.742;2023-04-07T04:49:39;99854.59;;;1.75;62.87
75699;BME280;64313;51.018;13.742;2023-04-07T04:52:04;99860.97;;;1.72;62.93
75699;BME280;64313;51.018;13.742;2023-04-07T04:54:36;99860.97;;;1.72;63.12
75699;BME280;64313;51.018;13.742;2023-04-07T04:57:01;99862.91;;;1.70;63.19
75699;BME280;64313;51.018;13.742;2023-04-07T04:59:27;99861.25;;;1.69;63.50
75699;BME280;64313;51.018;13.742;2023-04-07T05:01:58;99857.75;;;1.68;63.44
75699;BME280;64313;51.018;13.742;2023-04-07T05:04:23;99862.22;;;1.68;63.53
75699;BME280;64313;51.018;13.742;2023-04-07T05:06:58;99858.88;;;1.66;63.89
75699;BME280;64313;51.018;13.742;2023-04-07T05:09:26;99865.81;;;1.67;63.57
75699;BME280;64313;51.018;13.742;2023-04-07T05:11:52;99858.88;;;1.66;63.44
75699;BME280;64313;51.018;13.742;2023-04-07T05:14:17;99862.22;;;1.68;62.92
75699;BME280;64313;51.018;13.742;2023-04-07T05:16:49;99857.22;;;1.65;63.19
75699;BME280;64313;51.018;13.742;2023-04-07T05:19:19;99856.94;;;1.68;62.69
75699;BME280;64313;51.018;13.742;2023-04-07T05:21:45;99859.44;;;1.69;63.17
75699;BME280;64313;51.018;13.742;2023-04-07T05:24:12;99864.72;;;1.69;63.82
75699;BME280;64313;51.018;13.742;2023-04-07T05:26:37;99863.88;;;1.69;63.39
75699;BME280;64313;51.018;13.742;2023-04-07T05:29:04;99855.13;;;1.68;63.35
75699;BME280;64313;51.018;13.742;2023-04-07T05:31:29;99856.94;;;1.68;63.68
75699;BME280;64313;51.018;13.742;2023-04-07T05:33:58;99856.94;;;1.68;63.25
75699;BME280;64313;51.018;13.742;2023-04-07T05:36:27;99856.94;;;1.68;63.06
75699;BME280;64313;51.018;13.742;2023-04-07T05:38:55;99852.91;;;1.73;62.89
75699;BME280;64313;51.018;13.742;2023-04-07T05:41:20;99856.13;;;1.77;62.76
75699;BME280;64313;51.018;13.742;2023-04-07T05:43:46;99852.38;;;1.80;62.68
75699;BME280;64313;51.018;13.742;2023-04-07T05:46:13;99855.41;;;1.85;62.36
75699;BME280;64313;51.018;13.742;2023-04-07T05:48:46;99856.94;;;1.87;62.30
75699;BME280;64313;51.018;13.742;2023-04-07T05:51:12;99855.53;;;1.93;62.96
75699;BME280;64313;51.018;13.742;2023-04-07T05:53:38;99852.78;;;1.94;62.32
75699;BME280;64313;51.018;13.742;2023-04-07T05:56:05;99854.16;;;1.99;62.96
75699;BME280;64313;51.018;13.742;2023-04-07T05:58:40;99850.97;;;2.05;62.96
75699;BME280;64313;51.018;13.742;2023-04-07T06:01:07;99851.50;;;2.08;63.24
75699;BME280;64313;51.018;13.742;2023-04-07T06:03:33;99854.41;;;2.15;62.71
75699;BME280;64313;51.018;13.742;2023-04-07T06:06:12;99857.28;;;2.22;62.56
75699;BME280;64313;51.018;13.742;2023-04-07T06:08:37;99856.03;;;2.26;62.26
75699;BME280;64313;51.018;13.742;2023-04-07T06:11:02;99858.25;;;2.30;62.32
75699;BME280;64313;51.018;13.742;2023-04-07T06:13:48;99856.44;;;2.41;62.96
75699;BME280;64313;51.018;13.742;2023-04-07T06:16:13;99858.22;;;2.50;61.99
75699;BME280;64313;51.018;13.742;2023-04-07T06:18:39;99859.72;;;2.62;62.08
75699;BME280;64313;51.018;13.742;2023-04-07T06:21:05;99858.81;;;2.71;62.61
75699;BME280;64313;51.018;13.742;2023-04-07T06:23:31;99858.78;;;2.81;62.01
75699;BME280;64313;51.018;13.742;2023-04-07T06:25:56;99856.94;;;2.91;62.06
75699;BME280;64313;51.018;13.742;2023-04-07T06:28:21;99855.06;;;3.01;61.52
75699;BME280;64313;51.018;13.742;2023-04-07T06:30:47;99855.16;;;3.10;61.15
75699;BME280;64313;51.018;13.742;2023-04-07T06:33:14;99849.00;;;3.19;61.16
75699;BME280;64313;51.018;13.742;2023-04-07T06:39:26;99848.13;;;3.46;61.02
75699;BME280;64313;51.018;13.742;2023-04-07T06:41:53;99840.78;;;3.58;61.30
75699;BME280;64313;51.018;13.742;2023-04-07T06:44:18;99850.34;;;3.68;60.79
75699;BME280;64313;51.018;13.742;2023-04-07T06:46:43;99846.63;;;3.79;60.24
75699;BME280;64313;51.018;13.742;2023-04-07T06:49:11;99851.81;;;3.89;59.83
75699;BME280;64313;51.018;13.742;2023-04-07T06:51:36;99848.41;;;3.97;59.66
75699;BME280;64313;51.018;13.742;2023-04-07T06:54:02;99852.78;;;4.06;60.07
75699;BME280;64313;51.018;13.742;2023-04-07T06:56:28;99847.69;;;4.12;60.16
75699;BME280;64313;51.018;13.742;2023-04-07T06:58:53;99841.94;;;4.17;59.67
75699;BME280;64313;51.018;13.742;2023-04-07T07:01:19;99839.81;;;4.21;59.46
75699;BME280;64313;51.018;13.742;2023-04-07T07:03:44;99839.81;;;4.21;59.42
75699;BME280;64313;51.018;13.742;2023-04-07T07:06:10;99840.66;;;4.21;59.32
75699;BME280;64313;51.018;13.742;2023-04-07T07:08:35;99844.81;;;4.24;59.22
75699;BME280;64313;51.018;13.742;2023-04-07T07:11:01;99844.66;;;4.25;59.13
75699;BME280;64313;51.018;13.742;2023-04-07T07:13:27;99846.00;;;4.29;58.77
75699;BME280;64313;51.018;13.742;2023-04-07T07:15:52;99845.84;;;4.31;58.91
75699;BME280;64313;51.018;13.742;2023-04-07T07:18:18;99845.53;;;4.34;58.95
75699;BME280;64313;51.018;13.742;2023-04-07T07:20:43;99848.56;;;4.39;58.80
75699;BME280;64313;51.018;13.742;2023-04-07T07:23:09;99849.88;;;4.43;58.23
75699;BME280;64313;51.018;13.742;2023-04-07T07:25:34;99857.22;;;4.49;58.02
75699;BME280;64313;51.018;13.742;2023-04-07T07:28:00;99852.78;;;4.58;58.09
75699;BME280;64313;51.018;13.742;2023-04-07T07:30:25;99859.78;;;4.67;58.20
75699;BME280;64313;51.018;13.742;2023-04-07T07:32:53;99858.00;;;4.76;57.48
75699;BME280;64313;51.018;13.742;2023-04-07T07:35:21;99860.72;;;4.84;57.50
75699;BME280;64313;51.018;13.742;2023-04-07T07:37:46;99859.91;;;4.92;57.00
75699;BME280;64313;51.018;13.742;2023-04-07T07:40:12;99857.78;;;5.04;56.83
75699;BME280;64313;51.018;13.742;2023-04-07T07:42:38;99860.16;;;5.15;56.38
75699;BME280;64313;51.018;13.742;2023-04-07T07:45:04;99859.03;;;5.26;55.51
75699;BME280;64313;51.018;13.742;2023-04-07T07:47:29;99852.91;;;5.33;56.29
75699;BME280;64313;51.018;13.742;2023-04-07T07:49:54;99862.56;;;5.42;55.69
75699;BME280;64313;51.018;13.742;2023-04-07T07:52:20;99864.22;;;5.52;55.69
75699;BME280;64313;51.018;13.742;2023-04-07T07:54:47;99863.91;;;5.63;56.07
75699;BME280;64313;51.018;13.742;2023-04-07T07:57:12;99866.56;;;5.71;55.58
75699;BME280;64313;51.018;13.742;2023-04-07T07:59:37;99862.94;;;5.80;55.05
75699;BME280;64313;51.018;13.742;2023-04-07T08:02:05;99865.94;;;5.85;55.09
75699;BME280;64313;51.018;13.742;2023-04-07T08:04:30;99859.97;;;5.92;54.04
75699;BME280;64313;51.018;13.742;2023-04-07T08:06:55;99867.97;;;6.00;53.35
75699;BME280;64313;51.018;13.742;2023-04-07T08:09:21;99871.78;;;6.05;52.55
75699;BME280;64313;51.018;13.742;2023-04-07T08:11:46;99873.41;;;6.06;53.77
75699;BME280;64313;51.018;13.742;2023-04-07T08:14:15;99869.59;;;6.09;53.14
75699;BME280;64313;51.018;13.742;2023-04-07T08:16:40;99876.41;;;6.12;52.57
75699;BME280;64313;51.018;13.742;2023-04-07T08:19:06;99866.47;;;6.14;53.34
75699;BME280;64313;51.018;13.742;2023-04-07T08:21:31;99870.59;;;6.16;52.36
75699;BME280;64313;51.018;13.742;2023-04-07T08:23:57;99872.91;;;6.19;52.81
75699;BME280;64313;51.018;13.742;2023-04-07T08:26:23;99869.09;;;6.22;52.50
75699;BME280;64313;51.018;13.742;2023-04-07T08:28:48;99870.59;;;6.24;50.86
75699;BME280;64313;51.018;13.742;2023-04-07T08:31:16;99871.25;;;6.26;51.43
75699;BME280;64313;51.018;13.742;2023-04-07T08:33:41;99877.06;;;6.30;51.53
75699;BME280;64313;51.018;13.742;2023-04-07T08:36:06;99877.56;;;6.34;52.00
75699;BME280;64313;51.018;13.742;2023-04-07T08:38:32;99874.56;;;6.37;52.12
75699;BME280;64313;51.018;13.742;2023-04-07T08:41:00;99886.66;;;6.39;50.62
75699;BME280;64313;51.018;13.742;2023-04-07T08:43:27;99872.41;;;6.40;50.32
75699;BME280;64313;51.018;13.742;2023-04-07T08:45:55;99871.25;;;6.43;50.22
75699;BME280;64313;51.018;13.742;2023-04-07T08:48:23;99869.22;;;6.45;50.63
75699;BME280;64313;51.018;13.742;2023-04-07T08:50:51;99858.09;;;6.49;50.68
75699;BME280;64313;51.018;13.742;2023-04-07T08:53:27;99858.78;;;6.52;51.25
75699;BME280;64313;51.018;13.742;2023-04-07T08:55:55;99862.91;;;6.54;49.94
75699;BME280;64313;51.018;13.742;2023-04-07T08:58:20;99866.41;;;6.55;49.60
75699;BME280;64313;51.018;13.742;2023-04-07T09:00:46;99869.06;;;6.55;50.68
75699;BME280;64313;51.018;13.742;2023-04-07T09:03:14;99865.56;;;6.54;50.50
75699;BME280;64313;51.018;13.742;2023-04-07T09:05:43;99866.25;;;6.56;50.67
75699;BME280;64313;51.018;13.742;2023-04-07T09:08:08;99862.41;;;6.59;49.41
75699;BME280;64313;51.018;13.742;2023-04-07T09:10:33;99866.41;;;6.63;49.92
75699;BME280;64313;51.018;13.742;2023-04-07T09:13:00;99865.22;;;6.65;49.57
75699;BME280;64313;51.018;13.742;2023-04-07T09:15:28;99862.91;;;6.70;49.38
75699;BME280;64313;51.018;13.742;2023-04-07T09:17:55;99867.03;;;6.73;50.25
75699;BME280;64313;51.018;13.742;2023-04-07T09:20:21;99865.69;;;6.77;49.88
75699;BME280;64313;51.018;13.742;2023-04-07T09:22:46;99863.53;;;6.81;49.17
75699;BME280;64313;51.018;13.742;2023-04-07T09:25:20;99862.00;;;6.86;49.34
75699;BME280;64313;51.018;13.742;2023-04-07T09:27:55;99863.31;;;6.90;49.42
75699;BME280;64313;51.018;13.742;2023-04-07T09:30:21;99861.13;;;6.94;48.71
75699;BME280;64313;51.018;13.742;2023-04-07T09:32:47;99863.44;;;6.97;49.49
75699;BME280;64313;51.018;13.742;2023-04-07T09:35:12;99857.78;;;7.00;48.44
75699;BME280;64313;51.018;13.742;2023-04-07T09:37:38;99852.16;;;7.03;49.58
75699;BME280;64313;51.018;13.742;2023-04-07T09:40:03;99853.63;;;7.06;49.00
75699;BME280;64313;51.018;13.742;2023-04-07T09:42:29;99850.63;;;7.09;48.69
75699;BME280;64313;51.018;13.742;2023-04-07T09:45:00;99845.09;;;7.10;49.49
75699;BME280;64313;51.018;13.742;2023-04-07T09:47:29;99844.59;;;7.15;48.85
75699;BME280;64313;51.018;13.742;2023-04-07T09:49:55;99845.09;;;7.19;48.46
75699;BME280;64313;51.018;13.742;2023-04-07T09:52:47;99845.75;;;7.21;48.51
75699;BME280;64313;51.018;13.742;2023-04-07T09:55:13;99840.91;;;7.24;47.90
75699;BME280;64313;51.018;13.742;2023-04-07T09:57:40;99838.72;;;7.28;49.41
75699;BME280;64313;51.018;13.742;2023-04-07T10:00:07;99841.88;;;7.31;48.85
75699;BME280;64313;51.018;13.742;2023-04-07T10:02:38;99841.34;;;7.36;48.28
75699;BME280;64313;51.018;13.742;2023-04-07T10:05:03;99840.31;;;7.37;48.33
75699;BME280;64313;51.018;13.742;2023-04-07T10:07:29;99841.00;;;7.39;48.16
75699;BME280;64313;51.018;13.742;2023-04-07T10:09:56;99839.00;;;7.41;48.08
75699;BME280;64313;51.018;13.742;2023-04-07T10:12:21;99841.28;;;7.44;47.45
75699;BME280;64313;51.018;13.742;2023-04-07T10:14:49;99837.44;;;7.47;47.04
75699;BME280;64313;51.018;13.742;2023-04-07T10:17:16;99833.59;;;7.49;47.79
75699;BME280;64313;51.018;13.742;2023-04-07T10:19:44;99837.59;;;7.53;47.81
75699;BME280;64313;51.018;13.742;2023-04-07T10:22:11;99839.88;;;7.56;47.71
75699;BME280;64313;51.018;13.742;2023-04-07T10:24:50;99841.16;;;7.61;47.52
75699;BME280;64313;51.018;13.742;2023-04-07T10:27:21;99841.66;;;7.64;46.40
75699;BME280;64313;51.018;13.742;2023-04-07T10:29:49;99831.47;;;7.68;47.40
75699;BME280;64313;51.018;13.742;2023-04-07T10:32:17;99832.78;;;7.72;46.87
75699;BME280;64313;51.018;13.742;2023-04-07T10:37:14;99832.72;;;7.80;47.00
75699;BME280;64313;51.018;13.742;2023-04-07T10:39:44;99832.03;;;7.86;45.19
75699;BME280;64313;51.018;13.742;2023-04-07T10:45:07;99834.91;;;7.99;46.15
75699;BME280;64313;51.018;13.742;2023-04-07T10:47:34;99831.50;;;8.06;45.89
75699;BME280;64313;51.018;13.742;2023-04-07T10:50:21;99832.63;;;8.11;45.32
75699;BME280;64313;51.018;13.742;2023-04-07T10:52:48;99833.91;;;8.15;45.76
75699;BME280;64313;51.018;13.742;2023-04-07T10:55:33;99825.41;;;8.20;44.90
75699;BME280;64313;51.018;13.742;2023-04-07T11:03:30;99845.25;;;8.32;45.14
75699;BME280;64313;51.018;13.742;2023-04-07T11:06:08;99836.25;;;8.33;45.75
75699;BME280;64313;51.018;13.742;2023-04-07T11:08:36;99837.53;;;8.37;43.86
75699;BME280;64313;51.018;13.742;2023-04-07T11:11:02;99836.53;;;8.38;45.06
75699;BME280;64313;51.018;13.742;2023-04-07T11:13:40;99834.16;;;8.43;44.96
75699;BME280;64313;51.018;13.742;2023-04-07T11:16:06;99831.78;;;8.49;42.31
75699;BME280;64313;51.018;13.742;2023-04-07T11:18:33;99829.41;;;8.54;43.99
75699;BME280;64313;51.018;13.742;2023-04-07T11:20:59;99831.34;;;8.60;43.30
75699;BME280;64313;51.018;13.742;2023-04-07T11:23:26;99831.78;;;8.63;43.50
75699;BME280;64313;51.018;13.742;2023-04-07T11:25:58;99833.09;;;8.68;42.88
75699;BME280;64313;51.018;13.742;2023-04-07T11:28:25;99827.22;;;8.72;41.93
75699;BME280;64313;51.018;13.742;2023-04-07T11:30:52;99826.84;;;8.75;41.95
75699;BME280;64313;51.018;13.742;2023-04-07T11:33:19;99826.63;;;8.77;42.22
75699;BME280;64313;51.018;13.742;2023-04-07T11:35:56;99835.09;;;8.80;42.81
75699;BME280;64313;51.018;13.742;2023-04-07T11:38:24;99826.72;;;8.83;41.59
75699;BME280;64313;51.018;13.742;2023-04-07T11:40:52;99826.34;;;8.86;43.14
75699;BME280;64313;51.018;13.742;2023-04-07T11:43:25;99824.53;;;8.87;42.90
75699;BME280;64313;51.018;13.742;2023-04-07T11:46:11;99827.75;;;8.97;41.75
75699;BME280;64313;51.018;13.742;2023-04-07T11:48:39;99816.06;;;8.98;43.00
75699;BME280;64313;51.018;13.742;2023-04-07T11:51:05;99812.84;;;9.03;43.42
75699;BME280;64313;51.018;13.742;2023-04-07T11:53:34;99815.94;;;9.06;42.85
75699;BME280;64313;51.018;13.742;2023-04-07T11:56:08;99816.41;;;9.10;43.25
75699;BME280;64313;51.018;13.742;2023-04-07T11:58:35;99806.84;;;9.16;43.24
75699;BME280;64313;51.018;13.742;2023-04-07T12:01:02;99812.81;;;9.18;42.98
75699;BME280;64313;51.018;13.742;2023-04-07T12:03:34;99807.09;;;9.21;42.76
75699;BME280;64313;51.018;13.742;2023-04-07T12:06:03;99810.41;;;9.23;42.26
75699;BME280;64313;51.018;13.742;2023-04-07T12:08:42;99810.66;;;9.28;41.63
75699;BME280;64313;51.018;13.742;2023-04-07T12:11:09;99813.13;;;9.29;41.48
75699;BME280;64313;51.018;13.742;2023-04-07T12:13:35;99810.47;;;9.29;40.43
75699;BME280;64313;51.018;13.742;2023-04-07T12:16:01;99802.47;;;9.29;41.87
75699;BME280;64313;51.018;13.742;2023-04-07T12:18:27;99808.63;;;9.30;42.21
75699;BME280;64313;51.018;13.742;2023-04-07T12:20:53;99805.97;;;9.30;41.46
75699;BME280;64313;51.018;13.742;2023-04-07T12:23:18;99815.44;;;9.32;42.32
75699;BME280;64313;51.018;13.742;2023-04-07T12:25:44;99804.78;;;9.32;42.76
75699;BME280;64313;51.018;13.742;2023-04-07T12:28:09;99810.38;;;9.38;41.46
75699;BME280;64313;51.018;13.742;2023-04-07T12:30:34;99807.31;;;9.41;41.75
75699;BME280;64313;51.018;13.742;2023-04-07T12:33:00;99809.97;;;9.41;41.38
75699;BME280;64313;51.018;13.742;2023-04-07T12:35:27;99809.59;;;9.44;42.90
75699;BME280;64313;51.018;13.742;2023-04-07T12:37:52;99812.91;;;9.46;42.45
75699;BME280;64313;51.018;13.742;2023-04-07T12:40:18;99808.22;;;9.48;43.26
75699;BME280;64313;51.018;13.742;2023-04-07T12:42:43;99809.84;;;9.49;42.61
75699;BME280;64313;51.018;13.742;2023-04-07T12:45:09;99804.13;;;9.52;41.79
75699;BME280;64313;51.018;13.742;2023-04-07T12:47:35;99804.78;;;9.54;42.56
75699;BME280;64313;51.018;13.742;2023-04-07T12:50:00;99807.25;;;9.56;42.00
75699;BME280;64313;51.018;13.742;2023-04-07T12:52:26;99808.09;;;9.56;41.97
75699;BME280;64313;51.018;13.742;2023-04-07T12:54:51;99805.22;;;9.58;41.85
75699;BME280;64313;51.018;13.742;2023-04-07T12:57:17;99806.06;;;9.58;42.17
75699;BME280;64313;51.018;13.742;2023-04-07T12:59:42;99808.50;;;9.60;42.90
75699;BME280;64313;51.018;13.742;2023-04-07T13:02:08;99809.97;;;9.62;43.14
75699;BME280;64313;51.018;13.742;2023-04-07T13:04:34;99803.63;;;9.63;43.28
75699;BME280;64313;51.018;13.742;2023-04-07T13:07:00;99799.94;;;9.64;42.24
75699;BME280;64313;51.018;13.742;2023-04-07T13:09:27;99805.09;;;9.66;42.74
75699;BME280;64313;51.018;13.742;2023-04-07T13:11:52;99803.44;;;9.65;43.61
75699;BME280;64313;51.018;13.742;2023-04-07T13:14:17;99798.94;;;9.65;43.72
75699;BME280;64313;51.018;13.742;2023-04-07T13:16:43;99803.88;;;9.68;44.39
75699;BME280;64313;51.018;13.742;2023-04-07T13:19:08;99794.22;;;9.67;43.23
75699;BME280;64313;51.018;13.742;2023-04-07T13:21:34;99805.75;;;9.68;44.52
75699;BME280;64313;51.018;13.742;2023-04-07T13:23:59;99802.84;;;9.69;43.72
75699;BME280;64313;51.018;13.742;2023-04-07T13:26:26;99799.19;;;9.70;44.16